Latest Coastal Weather Observations for Williamtown

IDN60701

Issued at 1:51 pm EST Monday 27 June 2016 (issued every 10 minutes, with the page automatically refreshed every 10 minutes)

About coastal observations | Map of coastal stations | Coastal observations for NSW | Marine services | Other Formats
Station Details ID: 061078 Name: WILLIAMTOWN RAAF Lat: -32.79 Lon: 151.84 Height: 9.0 m
Data from the previous 72 hours. | See also: Recent months at Williamtown
Date/Time
EST
Temp
°C
Wind Pressure Rain since
9am
mm
Weather Cloud Vis
km
Sea
Height
m
Swell
Dir  Spd
kts
Gust
kts
hPa Trend Height
m
Period
s
Dir
27/01:30pm 11.8 NW 17 26 1013.4 - 0.0 - Mostly clear 10 - - - -
27/01:00pm 12.1 WNW 18 23 1013.6 - 0.0 - Mostly clear 10 - - - -
27/12:30pm 12.2 WNW 15 20 1013.8 - 0.0 - Mostly clear 10 - - - -
27/12:00pm 11.9 WNW 16 21 1014.1 F 0.0 - Mostly clear 10 - - - -
27/11:30am 11.8 NW 18 24 1014.7 - 0.0 - Mostly clear 10 - - - -
27/11:00am 10.6 WNW 19 26 1015.1 - 0.0 - Mostly clear 10 - - - -
27/10:30am 10.7 WNW 14 20 1015.4 - 0.0 - Mostly clear 10 - - - -
27/10:00am 9.4 NW 15 19 1015.8 - 0.0 - Mostly clear 10 - - - -
27/09:30am 8.7 NW 13 18 1016.0 - 0.0 - Mostly clear 10 - - - -
27/09:00am 8.5 NW 13 19 1016.1 F 0.0 - Cloudy 10 - - - -
27/08:30am 8.3 NW 17 22 1015.9 - 0.0 - Partly cloudy 10 - - - -
27/08:00am 8.4 NW 19 26 1016.4 - 0.0 - Cloudy 10 - - - -
27/07:30am 8.6 NW 18 22 1016.2 - 0.0 - Cloudy 10 - - - -
27/07:00am 8.9 WNW 13 17 1015.9 - 0.0 - Cloudy 10 - - - -
27/06:30am 8.3 NW 9 11 1015.6 - 0.0 - Partly cloudy 10 - - - -
27/06:00am 8.2 NW 8 9 1015.3 F 0.0 - Cloudy 10 - - - -
27/05:30am 7.9 NNW 5 7 1015.0 - 0.0 - Partly cloudy 10 - - - -
27/05:00am 7.9 WNW 6 6 1014.9 - 0.0 - Cloudy 10 - - - -
27/04:30am 8.3 NW 6 7 1015.0 - 0.0 - Cloudy 10 - - - -
27/04:00am 8.9 NNW 7 9 1015.3 - 0.0 - Cloudy 10 - - - -
27/03:30am 8.1 WNW 8 10 1015.2 - 0.0 - - 10 - - - -
27/03:00am 8.3 W 8 10 1015.1 F 0.0 - Cloudy 10 - - - -
27/02:30am 8.3 NW 6 7 1015.3 - 0.0 - - 10 - - - -
27/02:00am 8.2 N 5 7 1015.3 - 0.0 - Partly cloudy 10 - - - -
27/01:30am 7.8 NW 5 6 1015.3 - 0.0 - Partly cloudy 10 - - - -
27/01:00am 7.8 NW 6 7 1015.6 - 0.0 - - 10 - - - -
27/12:30am 8.2 WNW 5 6 1015.7 - 0.0 - Partly cloudy 10 - - - -
27/12:00am 8.3 NW 6 6 1016.2 F 0.0 - Cloudy 10 - - - -
 
Date/Time
EST
Temp
°C
Wind Pressure Rain since
9am
mm
Weather Cloud Vis
km
Sea
Height
m
Swell
Dir  Spd
kts
Gust
kts
hPa Trend Height
m
Period
s
Dir
26/11:30pm 8.7 NW 7 8 1016.4 - 0.0 - - 10 - - - -
26/11:00pm 7.9 NNW 6 7 1016.6 - 0.0 - - 10 - - - -
26/10:30pm 7.2 NW 2 5 1016.3 - 0.0 - - 10 - - - -
26/10:00pm 8.1 ENE 4 5 1016.1 - 0.0 - - 10 - - - -
26/09:30pm 8.9 NNW 1 4 1016.5 - 0.0 - - 10 - - - -
26/09:00pm 8.8 NNW 4 4 1017.3 F 0.0 - Cloudy 10 - - - -
26/08:30pm 8.5 NW 4 5 1017.9 - 0.0 - - 10 - - - -
26/08:00pm 9.1 NE 2 5 1017.3 - 0.0 - - 10 - - - -
26/07:30pm 10.0 NW 5 6 1017.7 - 0.0 - - 10 - - - -
26/07:00pm 10.2 NNW 6 7 1017.5 - 0.0 - - 10 - - - -
26/06:30pm 9.1 NNW 5 5 1017.5 - 0.0 - - 10 - - - -
26/06:00pm 9.4 NNW 1 4 1017.5 F 0.0 - Cloudy 10 - - - -
26/05:30pm 10.0 CALM 0 1 1016.8 - 0.0 - - 10 - - - -
26/05:00pm 10.7 W 2 4 1016.8 - 0.0 - - 10 - - - -
26/04:30pm 11.8 CALM 0 0 1016.7 - 0.0 - - 10 - - - -
26/04:00pm 12.8 W 2 4 1016.8 - 0.0 - - 10 - - - -
26/03:30pm 13.2 WNW 4 4 1017.1 - 0.0 - - 10 - - - -
26/03:00pm 13.6 NNW 5 6 1017.6 F 0.0 - Cloudy 10 - - - -
26/02:30pm 14.1 NW 6 7 1017.7 - 0.0 - - 10 - - - -
26/02:00pm 14.4 WNW 5 7 1017.9 - 0.0 - - 10 - - - -
26/01:30pm 14.4 NW 6 9 1018.1 - 0.0 - - 10 - - - -
26/01:00pm 13.7 NW 8 10 1018.3 - 0.0 - - 10 - - - -
26/12:30pm 12.0 NW 8 10 1018.7 - 0.0 - - 10 - - - -
26/12:00pm 11.9 WNW 9 11 1019.2 F 0.0 - Partly cloudy 10 - - - -
26/11:30am 11.2 NW 10 14 1019.8 - 0.0 - - 10 - - - -
26/11:00am 10.6 WNW 13 18 1020.8 - 0.0 - - 10 - - - -
26/10:30am 10.5 NW 14 17 1021.4 - 0.0 - - 10 - - - -
26/10:00am 9.1 WNW 13 16 1021.9 - 0.0 - - 10 - - - -
26/09:30am 7.5 WNW 12 16 1021.4 - 0.0 - - 10 - - - -
26/09:00am 7.2 WNW 11 15 1021.5 F 0.0 - - 10 - - - -
26/08:30am 5.7 WNW 11 15 1021.7 - 0.0 - - 10 - - - -
26/08:00am 5.4 NW 9 14 1021.5 - 0.0 - - 10 - - - -
26/07:30am 3.4 NW 8 9 1021.5 - 0.0 - - 10 - - - -
26/07:00am 3.8 WNW 8 12 1021.3 - 0.0 - - 10 - - - -
26/06:30am 3.6 WNW 7 10 1021.2 - 0.0 - - 10 - - - -
26/06:00am 3.5 WNW 8 10 1021.0 R 0.0 - - 10 - - - -
26/05:30am 4.2 WNW 12 15 1020.9 - 0.0 - - 10 - - - -
26/05:00am 4.5 WNW 11 14 1020.5 - 0.0 - - 10 - - - -
26/04:30am 4.7 NW 13 17 1020.4 - 0.0 - - 10 - - - -
26/04:00am 5.0 WNW 13 16 1020.3 - 0.0 - - 10 - - - -
26/03:30am 4.8 WNW 10 15 1020.1 - 0.0 - - 10 - - - -
26/03:00am 5.0 WNW 9 11 1019.8 F 0.0 - - 10 - - - -
26/02:30am 5.3 WNW 11 15 1020.0 - 0.0 - Partly cloudy 10 - - - -
26/02:00am 6.0 WNW 10 14 1020.4 - 0.0 - Cloudy 10 - - - -
26/01:30am 6.1 WNW 11 14 1020.5 - 0.0 - Partly cloudy 10 - - - -
26/01:00am 5.4 WNW 10 14 1020.8 - 0.0 - Partly cloudy 10 - - - -
26/12:30am 6.0 WNW 13 16 1021.1 - 0.0 - Cloudy 10 - - - -
26/12:00am 5.7 WNW 12 15 1021.3 R 0.0 - Mostly clear 10 - - - -
 
Date/Time
EST
Temp
°C
Wind Pressure Rain since
9am
mm
Weather Cloud Vis
km
Sea
Height
m
Swell
Dir  Spd
kts
Gust
kts
hPa Trend Height
m
Period
s
Dir
25/11:30pm 5.4 WNW 10 14 1021.0 - 0.0 - - 10 - - - -
25/11:00pm 5.5 WNW 11 14 1020.7 - 0.0 - - 10 - - - -
25/10:30pm 5.4 WNW 10 13 1020.8 - 0.0 - - 10 - - - -
25/10:00pm 5.2 WNW 9 12 1020.8 - 0.0 - - 10 - - - -
25/09:30pm 4.8 WNW 9 10 1020.7 - 0.0 - - 10 - - - -
25/09:00pm 5.3 NW 7 9 1020.6 R 0.0 - - 10 - - - -
25/08:30pm 5.2 NW 7 7 1020.4 - 0.0 - - 10 - - - -
25/08:00pm 5.0 NW 7 8 1020.4 - 0.0 - - 10 - - - -
25/07:30pm 5.3 NW 6 7 1020.2 - 0.0 - - 10 - - - -
25/07:00pm 4.4 NW 6 9 1020.2 - 0.0 - - 10 - - - -
25/06:30pm 5.2 CALM 0 0 1019.9 - 0.0 - - 10 - - - -
25/06:00pm 7.1 W 4 4 1019.7 R 0.0 - - 10 - - - -
25/05:30pm 8.8 SW 4 5 1019.3 - 0.0 - - 10 - - - -
25/05:00pm 9.8 SW 5 6 1019.1 - 0.0 - - 10 - - - -
25/04:30pm 11.5 SSW 7 8 1018.9 - 0.0 - - 10 - - - -
25/04:00pm 13.0 SW 9 13 1018.7 - 0.0 - - 10 - - - -
25/03:30pm 13.5 SW 9 13 1018.5 - 0.0 - - 10 - - - -
25/03:00pm 13.6 SW 11 15 1018.4 R 0.0 - - 10 - - - -
25/02:30pm 14.1 SW 13 17 1018.2 - 0.0 - - 10 - - - -
25/02:00pm 13.8 SW 13 18 1018.0 - 0.0 - - 10 - - - -
25/01:30pm 13.8 SW 14 18 1018.0 - 0.0 - - 10 - - - -
25/01:00pm 14.0 SW 12 20 1018.2 - 0.0 - - 10 - - - -
25/12:30pm 13.3 SW 14 19 1018.3 - 0.0 - - 10 - - - -
25/12:00pm 13.3 WSW 13 17 1018.4 R 0.0 - - 10 - - - -
25/11:30am 12.7 W 13 19 1018.6 - 0.0 - - 10 - - - -
25/11:00am 11.9 W 14 19 1018.8 - 0.0 - - 10 - - - -
25/10:30am 11.3 W 16 21 1019.0 - 0.0 - - 10 - - - -
25/10:00am 10.7 WNW 17 22 1018.9 - 0.0 - - 10 - - - -
25/09:30am 9.8 WNW 18 24 1018.9 - 0.0 - - 10 - - - -
25/09:00am 9.0 WNW 17 23 1018.6 R 0.0 - - 10 - - - -
25/08:30am 8.1 WNW 17 22 1018.3 - 0.0 - - 10 - - - -
25/08:00am 7.4 WNW 17 21 1018.2 - 0.0 - - 10 - - - -
25/07:30am 6.6 WNW 15 20 1018.0 - 0.0 - - 10 - - - -
25/07:00am 6.1 WNW 14 19 1017.6 - 0.0 - - 10 - - - -
25/06:30am 6.4 WNW 14 18 1017.1 - 0.0 - - 10 - - - -
25/06:00am 6.5 WNW 16 21 1016.5 R 0.0 - - 10 - - - -
25/05:30am 6.6 WNW 16 22 1016.3 - 0.0 - - 10 - - - -
25/05:00am 6.8 WNW 16 19 1015.9 - 0.0 - - 10 - - - -
25/04:30am 6.8 WNW 16 20 1015.3 - 0.0 - - 10 - - - -
25/04:00am 6.9 WNW 16 20 1014.8 - 0.0 - - 10 - - - -
25/03:30am 7.3 WNW 17 22 1014.7 - 0.0 - - 10 - - - -
25/03:00am 7.5 NW 16 22 1014.5 R 0.0 - - 10 - - - -
25/02:30am 7.5 WNW 17 22 1014.1 - 0.0 - - 10 - - - -
25/02:00am 7.5 WNW 15 21 1013.9 - 0.0 - - 10 - - - -
25/01:30am 7.8 WNW 16 19 1013.8 - 0.0 - - 10 - - - -
25/01:00am 7.8 WNW 16 21 1013.2 - 0.0 - - 10 - - - -
25/12:30am 7.6 WNW 16 22 1013.0 - 0.0 - - 10 - - - -
25/12:00am 8.0 WNW 18 22 1012.7 R 0.0 - - 10 - - - -
 
Date/Time
EST
Temp
°C
Wind Pressure Rain since
9am
mm
Weather Cloud Vis
km
Sea
Height
m
Swell
Dir  Spd
kts
Gust
kts
hPa Trend Height
m
Period
s
Dir
24/11:30pm 7.8 NW 12 16 1012.7 - 0.0 - - 10 - - - -
24/11:00pm 8.9 WNW 18 25 1012.3 - 0.0 - - 10 - - - -
24/10:30pm 9.0 WNW 16 21 1012.2 - 0.0 - - 10 - - - -
24/10:00pm 8.6 WNW 16 20 1011.8 - 0.0 - - 10 - - - -
24/09:30pm 7.9 NW 13 16 1011.4 - 0.0 - - 10 - - - -
24/09:00pm 8.3 WNW 14 18 1011.5 R 0.0 - - 10 - - - -
24/08:30pm 8.5 WNW 13 19 1011.1 - 0.0 - - 10 - - - -
24/08:00pm 8.9 WNW 18 25 1010.4 - 0.0 - - 10 - - - -
24/07:30pm 8.9 NW 18 21 1010.0 - 0.0 - - 10 - - - -
24/07:00pm 8.9 WNW 14 18 1010.0 - 0.0 - - 10 - - - -
24/06:30pm 8.8 NW 13 19 1009.4 - 0.0 - - 10 - - - -
24/06:00pm 9.2 WNW 18 23 1008.9 R 0.0 Drizzle Mostly clear 10 - - - -
24/05:30pm 9.9 WNW 18 25 1008.0 - 0.0 - Partly cloudy 10 - - - -
24/05:11pm 10.2 WNW 22 32 1007.2 - 0.0 - Partly cloudy 10 - - - -
24/05:05pm 10.2 WNW 30 46 1006.7 - 0.0 - Partly cloudy 10 - - - -
24/05:00pm 10.4 WNW 31 46 1006.9 - 0.0 - Partly cloudy 10 - - - -
24/04:59pm 10.6 WNW 31 46 1006.8 - 0.0 - Partly cloudy 10 - - - -
24/04:52pm 13.7 WNW 25 40 1006.4 - 0.0 - Partly cloudy 10 - - - -
24/04:39pm 13.7 WNW 20 30 1006.0 - 0.0 - - 10 - - - -
24/04:30pm 14.2 WNW 22 31 1005.8 - 0.0 - - 10 - - - -
24/04:17pm 14.8 WNW 16 26 1005.6 - 0.0 - - 10 - - - -
24/04:00pm 15.2 WNW 17 26 1005.4 - 0.0 - Mostly clear 10 - - - -
24/03:41pm 15.6 WNW 21 33 1005.0 - 0.0 - Mostly clear 10 - - - -
24/03:30pm 15.8 WNW 22 30 1005.0 - 0.0 - Mostly clear 10 - - - -
24/03:00pm 16.3 WNW 20 32 1004.4 R 0.0 - Mostly clear 10 - - - -
24/02:56pm 16.2 WNW 19 32 1004.4 - 0.0 - Mostly clear 10 - - - -
24/02:30pm 15.8 WNW 21 27 1004.7 - 0.0 - Mostly clear 10 - - - -
24/02:00pm 15.1 WNW 18 26 1004.8 - 0.0 - Mostly clear 10 - - - -

Other Formats:

Comma delimited format used in spreadsheet applications
http://www.bom.gov.au/fwo/IDN60701/IDN60701.94776.axf

JavaScript Object Notation format (JSON) in row-major order
http://www.bom.gov.au/fwo/IDN60701/IDN60701.94776.json